Главная страница
METAR-TAF:

METAR-TAF

Аэропорты :

Багдад, Ирак

широта: 33-15-45N, долгота: 44-14-04E, высота над уровнем моря: 35 м

Текущие метеонаблюдения

Эта сводка был подготовлена 9 минут назад, в 14:00 UTC
Ветер 19 Узел от северно-северо-западный
Температура 19°C
Влажность 56%
Давление 1008 hPa
Видимость 10 км и более
Сплошная облачность на высоте 3000 фута

METAR: ORBI 221400Z 34019KT 9999 R33R/0550N OVC030 19/10 Q1008

Время: 17:09 (14:09 UTC)

Прогноз

Эта сводка был подготовлена 3 часа и 9 минут назад, в 11:00 UTC
Прогноз действительный с 22-го 12 UTC до 23-го 12 UTC
Ветер 24 Узел от северо-западный
Видимость: 3000 м
Сплошная облачность на высоте 3000 фута
Низовая пыльная метель
временами
С 22-го 13 UTC до 22-го 18 UTC
небольшая облачность на высоте 2500 фута, Кучево-дождевые.
изменения
С 22-го 19 UTC до 22-го 21 UTC
Ветер 8 Узел от северо-западный
Видимость: 6000 м

TAF: ORBI 221100Z 2212/2312 32024KT 3000 BLDU OVC030 TEMPO 2213/2218 G35KT -TSSHRA FEW025CB BECMG 2219/2221 32008KT 6000 NSC

Метеонаблюдения и прогнозы для более 4000 аэропортов (сводки METAR и TAF).

Имеющиеся станции представлены на карте желтыми и красными точками.

Чтобы увидеть название станции, наведите на нее мышь.

Затем щелкните, чтобы увидеть метеонаблюдения и метеопрогнозы.

Управление картой: чтобы увеличить масштаб, щелкните зеленые кнопки с черным крестиком; чтобы уменьшить масштаб, щелкните зеленую кнопку с тире; для просмотра соседних карт щелкайте зеленые стрелки.


METAR-TAF: